General Manuel Marquez De Leon International Airport
MMLP : now visible

Airfield :











YOU CAN JOIN US ON...

 
LOGIN :

Register | Disclaimer

   EN    FR    IT 

 









Legend :    VFR   Marginal VFR   IFR   Intensive IFR   Very Intensive IFR
Visi :
Ceiling :
>= 8 km
>= 3000ft
5 to 8 km
1000 to 3000 ft
1500m to 5 km
500 to 1000 ft
800 to 1500m
200 to 500 ft
< 800m
< 200 ft
Symbols :   Thunderstorms  Fog  Heavy snow  Heavy precipitations  Wind > 20 kt






- Airport Elevation : 69 ft
- IATA code : LAP


MMLP - General Manuel Marquez De Leon International

CURRENT METAR :
  • 081940Z 34010KT 10SM SKC 25/18 A3003 RMK ISOL CI

EXPIRED METARs :
  • 081840Z 33003KT 10SM SKC 25/18 A3006 RMK ISOL CI
  • 081740Z 35005KT 10SM SKC 24/20 A3009 RMK SLP189 52004 959 ISOL CI

TAF TAF MMLP
Valid from the 08 at 18:00 until the 09 at 18:00 UTC


081703Z 0818/0918 36008KT P6SM SCT250
BECMG 0820/0821 36015KT
FM090200 03005KT P6SM SKC
BECMG 0905/0906 00000KT
FM091600 21005KT P6SM SCT250



MET'MAP, your aeronautical weather chart ! - Copyright ORBIFLY December 2007 - Disclaimer

ORBIFLY MET'MAP TEAM :

Programming & Development : Alexandra Zaïnal
Concept & original design : Baudouin d'Aumeries
Assistance for programming : Marc-Olivier Méhu
Technical & hardware support : Manuel Goepfert

Contact : metmap@orbifly.com




SOURCES & CREDITS :

   NOAA       Earth
Advisory